Puerto Banus, Marbella

>

This is an optional block (switch it off / on) in the settings - file ($SITE['banners'] = false;)

You can display ads, any other important text or photo’s using text / html or PHP code.

You can place one or more at the top and or bottom and it can all be different for content / size .



Meteosat more information blitzortung!


Radar lluvias  rain snow radar


Visita nuestra red de sitios de meteo:

Documentation for the template used

MeteoibericaRed estaciones Meteorologicas

MeteoclimaticRed estaciones Meteorologicas



Sin Advertencias climatologicas .En este momento tenemos Nivel Verde.    No hay Alarmas

Informes METAR proximidad

   
EBAW - Antwerp
Actualización: 23-01-2018 08:20
Parcialmente nublado  
Parcialmente nublado  
   Viento: SSW 13 km/h
Viento: SSW 13 km/h
Temperatura: 8°C
Térmica: 6°C
Punto de rocío: 5°C
Humedad: 82%
Baromètro: 1021 hPa
Nublado: Parcialmente nublado
Visibilidad: More than 10 km
detalles de la nube: Parcialmente nublado 3200 ft
EBAW 230720Z 20007KT 9999 BKN032 08/05 Q1021 NOSIG
EBLG - Liège
Actualización: 23-01-2018 08:20
Parcialmente nublado  
Parcialmente nublado  
   Viento: South 14.8 km/h
Viento: South 14.8 km/h
Temperatura: 6°C
Térmica: 3°C
Punto de rocío: 3°C
Humedad: 81%
Baromètro: 1022 hPa
Nublado: Parcialmente nublado
Visibilidad: More than 10 km
detalles de la nube: Parcialmente nublado 3200 ft
EBLG 230720Z 19008KT 9999 BKN032 06/03 Q1022 NOSIG
EBCV - Mons/Bergen
Actualización: 23-01-2018 08:25
Parcialmente nublado  
Parcialmente nublado  
   Viento: SSW 14.8 km/h
Viento: SSW 14.8 km/h
Temperatura: 7°C
Térmica: 4°C
Punto de rocío: 6°C
Humedad: 93%
Baromètro: 1022 hPa
Nublado: Parcialmente nublado
Visibilidad: More than 10 km
detalles de la nube: Parcialmente nublado 2500 ft
EBCV 230725Z AUTO 20008KT 9999 BKN025/// 07/06 Q1022 BLU
EHBK - Maastricht
Actualización: 23-01-2018 08:25
Nublado  
Nublado  
   Viento: SSW 16.7 km/h
Viento: SSW 16.7 km/h
Temperatura: 7°C
Térmica: 4°C
Punto de rocío: 4°C
Humedad: 81%
Baromètro: 1021 hPa
Nublado: Nublado
Visibilidad: More than 10 km
detalles de la nube: Nublado 3200 ft
EHBK 230725Z AUTO 21009KT 9999 OVC032 07/04 Q1021 NOSIG
ELLX - Luxemburg
Actualización: 23-01-2018 08:20
Parcialmente nublado  
Parcialmente nublado  
   Viento: SW 11.1 km/h
Viento: SW 11.1 km/h
Temperatura: 5°C
Térmica: 2°C
Punto de rocío: 4°C
Humedad: 93%
Baromètro: 1023 hPa
Nublado: Parcialmente nublado
Visibilidad: More than 10 km
detalles de la nube: Parcialmente nublado 3000 ft
ELLX 230720Z 22006KT 9999 BKN030 05/04 Q1023 NOSIG
EBOS - Oostende
Actualización: 23-01-2018 08:20
Parcialmente nublado  
Parcialmente nublado  
   Viento: SSW 18.5 km/h
Viento: SSW 18.5 km/h
Temperatura: 7°C
Térmica: 4°C
Punto de rocío: 5°C
Humedad: 87%
Baromètro: 1020 hPa
Nublado: Parcialmente nublado
Visibilidad: More than 10 km
detalles de la nube: Nubes dispersas 2000 ft,
Parcialmente nublado 3400 ft
EBOS 230720Z 20010KT 9999 FEW020 BKN034 07/05 Q1020 NOSIG

Guión original por  Saratoga-weather.org Adaptado para la plantilla por  Weerstation Leuven

Usted encontrará nuestra información del tiempo también en:

Weather Underground

Iberian Peninsula Weather Network